Eureka, Alaska
Current Conditions -  °F | °C
As of 1:56 PM on Friday 28 Nov 2014 (Local Time) from PAZK Reporting Station
Overcast Overcast  
Wind Chill:   Ceiling: 9000
Heat Index:   Visibility: 10mi
Dew Point: -2°   Wind: 0mph
Humidity: 92%   Direction: NA
Pressure: 30.03"   Gusts: NA
Location:  61.94°N, 147.17°W
Report Text: PAZK 282256Z AUTO 00000KT 10SM OVC090 M18/M19 A3003 RMK AO1
Loading
Personal Weather Stations






























Interactive Weather Map New forecast layout! Learn more

10-Day Weather Forecast

Advertisements
Track Severe Weather on mobile